sensor_id;sensor_type;location;lat;lon;timestamp;P1;durP1;ratioP1;P2;durP2;ratioP2
25231;SDS011;13176;51.140;6.290;2023-05-29T00:02:04;19.20;;;17.90;;
25231;SDS011;13176;51.140;6.290;2023-05-29T00:04:30;20.20;;;18.80;;
25231;SDS011;13176;51.140;6.290;2023-05-29T00:06:57;29.27;;;27.20;;
25231;SDS011;13176;51.140;6.290;2023-05-29T00:09:23;25.45;;;23.83;;
25231;SDS011;13176;51.140;6.290;2023-05-29T00:11:51;29.20;;;27.40;;
25231;SDS011;13176;51.140;6.290;2023-05-29T00:14:19;27.25;;;25.58;;
25231;SDS011;13176;51.140;6.290;2023-05-29T00:16:46;28.77;;;27.13;;
25231;SDS011;13176;51.140;6.290;2023-05-29T00:19:15;28.60;;;26.95;;
25231;SDS011;13176;51.140;6.290;2023-05-29T00:21:48;24.13;;;22.70;;
25231;SDS011;13176;51.140;6.290;2023-05-29T00:24:15;19.52;;;18.30;;
25231;SDS011;13176;51.140;6.290;2023-05-29T00:26:42;27.67;;;26.08;;
25231;SDS011;13176;51.140;6.290;2023-05-29T00:29:09;33.95;;;32.05;;
25231;SDS011;13176;51.140;6.290;2023-05-29T00:31:36;29.45;;;27.73;;
25231;SDS011;13176;51.140;6.290;2023-05-29T00:34:03;23.63;;;22.17;;
25231;SDS011;13176;51.140;6.290;2023-05-29T00:36:29;28.35;;;26.58;;
25231;SDS011;13176;51.140;6.290;2023-05-29T00:38:57;29.13;;;27.40;;
25231;SDS011;13176;51.140;6.290;2023-05-29T00:41:24;29.88;;;27.92;;
25231;SDS011;13176;51.140;6.290;2023-05-29T00:43:51;29.55;;;27.40;;
25231;SDS011;13176;51.140;6.290;2023-05-29T00:46:17;29.90;;;28.02;;
25231;SDS011;13176;51.140;6.290;2023-05-29T00:48:46;31.75;;;29.60;;
25231;SDS011;13176;51.140;6.290;2023-05-29T00:51:13;33.13;;;31.13;;
25231;SDS011;13176;51.140;6.290;2023-05-29T00:53:41;25.77;;;24.27;;
25231;SDS011;13176;51.140;6.290;2023-05-29T00:56:09;23.13;;;21.63;;
25231;SDS011;13176;51.140;6.290;2023-05-29T00:58:36;20.80;;;19.50;;
25231;SDS011;13176;51.140;6.290;2023-05-29T01:01:03;21.50;;;20.13;;
25231;SDS011;13176;51.140;6.290;2023-05-29T01:03:30;23.05;;;21.45;;
25231;SDS011;13176;51.140;6.290;2023-05-29T01:06:01;25.02;;;23.30;;
25231;SDS011;13176;51.140;6.290;2023-05-29T01:08:29;25.65;;;24.20;;
25231;SDS011;13176;51.140;6.290;2023-05-29T01:10:56;29.10;;;27.27;;
25231;SDS011;13176;51.140;6.290;2023-05-29T01:13:31;27.15;;;25.63;;
25231;SDS011;13176;51.140;6.290;2023-05-29T01:16:04;31.95;;;30.00;;
25231;SDS011;13176;51.140;6.290;2023-05-29T01:18:54;32.70;;;30.88;;
25231;SDS011;13176;51.140;6.290;2023-05-29T01:21:50;38.92;;;36.70;;
25231;SDS011;13176;51.140;6.290;2023-05-29T01:24:48;39.55;;;37.15;;
25231;SDS011;13176;51.140;6.290;2023-05-29T01:27:21;34.20;;;32.08;;
25231;SDS011;13176;51.140;6.290;2023-05-29T01:29:51;38.88;;;36.45;;
25231;SDS011;13176;51.140;6.290;2023-05-29T01:32:18;33.15;;;30.98;;
25231;SDS011;13176;51.140;6.290;2023-05-29T01:34:46;38.08;;;35.67;;
25231;SDS011;13176;51.140;6.290;2023-05-29T01:37:12;46.80;;;43.92;;
25231;SDS011;13176;51.140;6.290;2023-05-29T01:39:39;47.88;;;44.97;;
25231;SDS011;13176;51.140;6.290;2023-05-29T01:42:06;65.68;;;61.83;;
25231;SDS011;13176;51.140;6.290;2023-05-29T01:44:33;74.22;;;69.95;;
25231;SDS011;13176;51.140;6.290;2023-05-29T01:47:00;138.85;;;131.25;;
25231;SDS011;13176;51.140;6.290;2023-05-29T01:49:28;112.18;;;105.68;;
25231;SDS011;13176;51.140;6.290;2023-05-29T01:51:58;168.30;;;159.27;;
25231;SDS011;13176;51.140;6.290;2023-05-29T01:54:24;209.75;;;198.30;;
25231;SDS011;13176;51.140;6.290;2023-05-29T01:56:51;181.15;;;171.23;;
25231;SDS011;13176;51.140;6.290;2023-05-29T01:59:17;211.70;;;200.02;;
25231;SDS011;13176;51.140;6.290;2023-05-29T02:01:45;234.10;;;221.10;;
25231;SDS011;13176;51.140;6.290;2023-05-29T02:04:11;219.38;;;207.00;;
25231;SDS011;13176;51.140;6.290;2023-05-29T02:06:38;144.60;;;136.50;;
25231;SDS011;13176;51.140;6.290;2023-05-29T02:09:04;133.57;;;125.25;;
25231;SDS011;13176;51.140;6.290;2023-05-29T02:11:32;130.25;;;122.80;;
25231;SDS011;13176;51.140;6.290;2023-05-29T02:13:59;69.47;;;65.20;;
25231;SDS011;13176;51.140;6.290;2023-05-29T02:16:29;89.43;;;84.22;;
25231;SDS011;13176;51.140;6.290;2023-05-29T02:18:55;90.28;;;84.82;;
25231;SDS011;13176;51.140;6.290;2023-05-29T02:21:22;83.55;;;78.43;;
25231;SDS011;13176;51.140;6.290;2023-05-29T02:23:48;98.90;;;93.15;;
25231;SDS011;13176;51.140;6.290;2023-05-29T02:26:14;55.75;;;52.40;;
25231;SDS011;13176;51.140;6.290;2023-05-29T02:28:41;52.90;;;49.30;;
25231;SDS011;13176;51.140;6.290;2023-05-29T02:31:08;50.05;;;46.65;;
25231;SDS011;13176;51.140;6.290;2023-05-29T02:33:34;49.65;;;46.50;;
25231;SDS011;13176;51.140;6.290;2023-05-29T02:36:01;48.67;;;45.75;;
25231;SDS011;13176;51.140;6.290;2023-05-29T02:38:27;64.88;;;61.03;;
25231;SDS011;13176;51.140;6.290;2023-05-29T02:40:54;72.40;;;67.90;;
25231;SDS011;13176;51.140;6.290;2023-05-29T02:43:21;70.90;;;66.57;;
25231;SDS011;13176;51.140;6.290;2023-05-29T02:45:48;74.10;;;69.63;;
25231;SDS011;13176;51.140;6.290;2023-05-29T02:48:14;58.50;;;54.97;;
25231;SDS011;13176;51.140;6.290;2023-05-29T02:50:41;50.30;;;47.15;;
25231;SDS011;13176;51.140;6.290;2023-05-29T02:53:07;47.35;;;44.42;;
25231;SDS011;13176;51.140;6.290;2023-05-29T02:55:34;49.70;;;46.70;;
25231;SDS011;13176;51.140;6.290;2023-05-29T02:58:02;48.88;;;45.78;;
25231;SDS011;13176;51.140;6.290;2023-05-29T03:00:28;46.45;;;43.33;;
25231;SDS011;13176;51.140;6.290;2023-05-29T03:02:56;42.65;;;39.92;;
25231;SDS011;13176;51.140;6.290;2023-05-29T03:05:22;43.33;;;40.55;;
25231;SDS011;13176;51.140;6.290;2023-05-29T03:07:49;39.70;;;37.10;;
25231;SDS011;13176;51.140;6.290;2023-05-29T03:10:15;39.55;;;37.15;;
25231;SDS011;13176;51.140;6.290;2023-05-29T03:12:44;41.22;;;38.10;;
25231;SDS011;13176;51.140;6.290;2023-05-29T03:15:11;40.38;;;37.83;;
25231;SDS011;13176;51.140;6.290;2023-05-29T03:17:37;40.42;;;37.70;;
25231;SDS011;13176;51.140;6.290;2023-05-29T03:20:04;36.80;;;34.45;;
25231;SDS011;13176;51.140;6.290;2023-05-29T03:22:32;38.10;;;35.38;;
25231;SDS011;13176;51.140;6.290;2023-05-29T03:24:58;40.95;;;38.03;;
25231;SDS011;13176;51.140;6.290;2023-05-29T03:27:25;36.42;;;33.85;;
25231;SDS011;13176;51.140;6.290;2023-05-29T03:29:52;39.13;;;36.58;;
25231;SDS011;13176;51.140;6.290;2023-05-29T03:32:18;40.40;;;37.80;;
25231;SDS011;13176;51.140;6.290;2023-05-29T03:34:45;35.75;;;33.30;;
25231;SDS011;13176;51.140;6.290;2023-05-29T03:37:11;34.25;;;31.75;;
25231;SDS011;13176;51.140;6.290;2023-05-29T03:39:38;37.70;;;34.85;;
25231;SDS011;13176;51.140;6.290;2023-05-29T03:42:04;35.38;;;32.88;;
25231;SDS011;13176;51.140;6.290;2023-05-29T03:44:31;37.80;;;35.08;;
25231;SDS011;13176;51.140;6.290;2023-05-29T03:46:57;36.40;;;33.80;;
25231;SDS011;13176;51.140;6.290;2023-05-29T03:49:24;34.30;;;31.33;;
25231;SDS011;13176;51.140;6.290;2023-05-29T03:51:51;33.30;;;30.75;;
25231;SDS011;13176;51.140;6.290;2023-05-29T03:54:17;34.65;;;32.10;;
25231;SDS011;13176;51.140;6.290;2023-05-29T03:56:44;32.03;;;29.85;;
25231;SDS011;13176;51.140;6.290;2023-05-29T03:59:10;34.42;;;31.85;;
25231;SDS011;13176;51.140;6.290;2023-05-29T04:01:37;32.47;;;30.23;;
25231;SDS011;13176;51.140;6.290;2023-05-29T04:04:03;32.63;;;30.20;;
25231;SDS011;13176;51.140;6.290;2023-05-29T04:06:30;32.35;;;29.98;;
25231;SDS011;13176;51.140;6.290;2023-05-29T04:08:57;32.83;;;30.38;;
25231;SDS011;13176;51.140;6.290;2023-05-29T04:11:23;31.60;;;29.35;;
25231;SDS011;13176;51.140;6.290;2023-05-29T04:13:50;34.00;;;31.48;;
25231;SDS011;13176;51.140;6.290;2023-05-29T04:16:16;33.95;;;31.45;;
25231;SDS011;13176;51.140;6.290;2023-05-29T04:18:43;34.72;;;32.30;;
25231;SDS011;13176;51.140;6.290;2023-05-29T04:21:09;34.42;;;31.83;;
25231;SDS011;13176;51.140;6.290;2023-05-29T04:23:37;32.55;;;30.08;;
25231;SDS011;13176;51.140;6.290;2023-05-29T04:26:03;31.77;;;29.65;;
25231;SDS011;13176;51.140;6.290;2023-05-29T04:28:31;29.10;;;26.77;;
25231;SDS011;13176;51.140;6.290;2023-05-29T04:30:58;33.03;;;30.73;;
25231;SDS011;13176;51.140;6.290;2023-05-29T04:33:25;35.50;;;32.97;;
25231;SDS011;13176;51.140;6.290;2023-05-29T04:35:51;32.58;;;30.27;;
25231;SDS011;13176;51.140;6.290;2023-05-29T04:38:18;37.83;;;34.90;;
25231;SDS011;13176;51.140;6.290;2023-05-29T04:40:51;33.30;;;30.75;;
25231;SDS011;13176;51.140;6.290;2023-05-29T04:43:18;33.00;;;30.77;;
25231;SDS011;13176;51.140;6.290;2023-05-29T04:45:45;36.38;;;33.83;;
25231;SDS011;13176;51.140;6.290;2023-05-29T04:48:11;36.60;;;33.90;;
25231;SDS011;13176;51.140;6.290;2023-05-29T04:50:38;39.72;;;36.60;;
25231;SDS011;13176;51.140;6.290;2023-05-29T04:53:05;40.35;;;37.25;;
25231;SDS011;13176;51.140;6.290;2023-05-29T04:55:31;39.08;;;35.83;;
25231;SDS011;13176;51.140;6.290;2023-05-29T04:57:58;38.80;;;36.05;;
25231;SDS011;13176;51.140;6.290;2023-05-29T05:00:24;39.35;;;36.47;;
25231;SDS011;13176;51.140;6.290;2023-05-29T05:02:51;40.58;;;37.88;;
25231;SDS011;13176;51.140;6.290;2023-05-29T05:05:18;40.42;;;37.20;;
25231;SDS011;13176;51.140;6.290;2023-05-29T05:07:44;37.17;;;34.05;;
25231;SDS011;13176;51.140;6.290;2023-05-29T05:10:11;41.70;;;38.83;;
25231;SDS011;13176;51.140;6.290;2023-05-29T05:12:37;42.90;;;39.60;;
25231;SDS011;13176;51.140;6.290;2023-05-29T05:15:04;38.92;;;35.20;;
25231;SDS011;13176;51.140;6.290;2023-05-29T05:17:31;36.50;;;33.17;;
25231;SDS011;13176;51.140;6.290;2023-05-29T05:19:58;37.90;;;35.10;;
25231;SDS011;13176;51.140;6.290;2023-05-29T05:22:25;39.10;;;36.05;;
25231;SDS011;13176;51.140;6.290;2023-05-29T05:24:51;38.03;;;35.53;;
25231;SDS011;13176;51.140;6.290;2023-05-29T05:27:20;46.65;;;43.45;;
25231;SDS011;13176;51.140;6.290;2023-05-29T05:29:46;44.53;;;40.97;;
25231;SDS011;13176;51.140;6.290;2023-05-29T05:32:13;46.45;;;43.15;;
25231;SDS011;13176;51.140;6.290;2023-05-29T05:34:39;38.05;;;35.45;;
25231;SDS011;13176;51.140;6.290;2023-05-29T05:37:06;37.88;;;34.78;;
25231;SDS011;13176;51.140;6.290;2023-05-29T05:39:33;37.63;;;34.83;;
25231;SDS011;13176;51.140;6.290;2023-05-29T05:41:59;40.80;;;37.20;;
25231;SDS011;13176;51.140;6.290;2023-05-29T05:44:27;36.90;;;33.95;;
25231;SDS011;13176;51.140;6.290;2023-05-29T05:46:53;36.78;;;33.80;;
25231;SDS011;13176;51.140;6.290;2023-05-29T05:49:20;38.08;;;34.30;;
25231;SDS011;13176;51.140;6.290;2023-05-29T05:51:47;36.08;;;33.47;;
25231;SDS011;13176;51.140;6.290;2023-05-29T05:54:15;40.22;;;37.10;;
25231;SDS011;13176;51.140;6.290;2023-05-29T05:56:42;43.60;;;40.13;;
25231;SDS011;13176;51.140;6.290;2023-05-29T05:59:08;39.22;;;35.80;;
25231;SDS011;13176;51.140;6.290;2023-05-29T06:01:35;45.55;;;42.13;;
25231;SDS011;13176;51.140;6.290;2023-05-29T06:04:02;50.80;;;46.90;;
25231;SDS011;13176;51.140;6.290;2023-05-29T06:06:29;43.15;;;40.13;;
25231;SDS011;13176;51.140;6.290;2023-05-29T06:08:58;45.13;;;41.92;;
25231;SDS011;13176;51.140;6.290;2023-05-29T06:11:24;42.30;;;39.08;;
25231;SDS011;13176;51.140;6.290;2023-05-29T06:13:51;42.17;;;39.15;;
25231;SDS011;13176;51.140;6.290;2023-05-29T06:16:18;29.83;;;27.58;;
25231;SDS011;13176;51.140;6.290;2023-05-29T06:18:45;35.97;;;32.90;;
25231;SDS011;13176;51.140;6.290;2023-05-29T06:21:12;30.35;;;28.23;;
25231;SDS011;13176;51.140;6.290;2023-05-29T06:23:39;33.90;;;31.30;;
25231;SDS011;13176;51.140;6.290;2023-05-29T06:26:07;37.20;;;33.75;;
25231;SDS011;13176;51.140;6.290;2023-05-29T06:28:34;39.63;;;36.38;;
25231;SDS011;13176;51.140;6.290;2023-05-29T06:31:00;34.67;;;31.73;;
25231;SDS011;13176;51.140;6.290;2023-05-29T06:33:26;38.95;;;35.85;;
25231;SDS011;13176;51.140;6.290;2023-05-29T06:35:53;34.97;;;31.75;;
25231;SDS011;13176;51.140;6.290;2023-05-29T06:38:19;37.88;;;34.97;;
25231;SDS011;13176;51.140;6.290;2023-05-29T06:40:46;33.60;;;30.65;;
25231;SDS011;13176;51.140;6.290;2023-05-29T06:43:12;32.08;;;29.35;;
25231;SDS011;13176;51.140;6.290;2023-05-29T06:45:39;32.35;;;29.83;;
25231;SDS011;13176;51.140;6.290;2023-05-29T06:48:06;41.45;;;38.08;;
25231;SDS011;13176;51.140;6.290;2023-05-29T06:50:33;34.00;;;30.88;;
25231;SDS011;13176;51.140;6.290;2023-05-29T06:53:00;31.75;;;29.17;;
25231;SDS011;13176;51.140;6.290;2023-05-29T06:55:26;32.67;;;30.42;;
25231;SDS011;13176;51.140;6.290;2023-05-29T06:57:53;32.95;;;30.20;;
25231;SDS011;13176;51.140;6.290;2023-05-29T07:00:19;37.33;;;34.47;;
25231;SDS011;13176;51.140;6.290;2023-05-29T07:02:46;37.00;;;34.35;;
25231;SDS011;13176;51.140;6.290;2023-05-29T07:05:12;39.40;;;36.35;;
25231;SDS011;13176;51.140;6.290;2023-05-29T07:07:39;32.10;;;29.55;;
25231;SDS011;13176;51.140;6.290;2023-05-29T07:10:05;38.20;;;35.20;;
25231;SDS011;13176;51.140;6.290;2023-05-29T07:12:32;30.50;;;27.63;;
25231;SDS011;13176;51.140;6.290;2023-05-29T07:14:59;41.97;;;38.75;;
25231;SDS011;13176;51.140;6.290;2023-05-29T07:17:25;29.70;;;27.40;;
25231;SDS011;13176;51.140;6.290;2023-05-29T07:19:52;31.77;;;29.08;;
25231;SDS011;13176;51.140;6.290;2023-05-29T07:22:20;28.40;;;25.85;;
25231;SDS011;13176;51.140;6.290;2023-05-29T07:24:46;30.25;;;27.85;;
25231;SDS011;13176;51.140;6.290;2023-05-29T07:27:13;31.92;;;29.33;;
25231;SDS011;13176;51.140;6.290;2023-05-29T07:29:39;41.78;;;37.65;;
25231;SDS011;13176;51.140;6.290;2023-05-29T07:32:06;31.02;;;28.70;;
25231;SDS011;13176;51.140;6.290;2023-05-29T07:34:32;36.65;;;33.67;;
25231;SDS011;13176;51.140;6.290;2023-05-29T07:37:00;36.85;;;34.00;;
25231;SDS011;13176;51.140;6.290;2023-05-29T07:39:27;30.10;;;27.60;;
25231;SDS011;13176;51.140;6.290;2023-05-29T07:41:54;37.17;;;34.10;;
25231;SDS011;13176;51.140;6.290;2023-05-29T07:44:21;37.53;;;34.60;;
25231;SDS011;13176;51.140;6.290;2023-05-29T07:46:48;37.78;;;34.78;;
25231;SDS011;13176;51.140;6.290;2023-05-29T07:49:14;44.33;;;41.08;;
25231;SDS011;13176;51.140;6.290;2023-05-29T07:51:41;39.35;;;36.45;;
25231;SDS011;13176;51.140;6.290;2023-05-29T07:54:08;39.20;;;36.10;;
25231;SDS011;13176;51.140;6.290;2023-05-29T07:56:34;32.58;;;30.00;;
25231;SDS011;13176;51.140;6.290;2023-05-29T07:59:01;33.38;;;30.60;;
25231;SDS011;13176;51.140;6.290;2023-05-29T08:01:27;30.95;;;28.25;;
25231;SDS011;13176;51.140;6.290;2023-05-29T08:03:54;35.17;;;32.33;;
25231;SDS011;13176;51.140;6.290;2023-05-29T08:06:21;35.70;;;32.55;;
25231;SDS011;13176;51.140;6.290;2023-05-29T08:08:48;33.97;;;31.50;;
25231;SDS011;13176;51.140;6.290;2023-05-29T08:11:14;30.92;;;28.10;;
25231;SDS011;13176;51.140;6.290;2023-05-29T08:13:41;33.78;;;31.30;;
25231;SDS011;13176;51.140;6.290;2023-05-29T08:16:07;31.00;;;28.60;;
25231;SDS011;13176;51.140;6.290;2023-05-29T08:18:34;39.70;;;36.50;;
25231;SDS011;13176;51.140;6.290;2023-05-29T08:21:00;25.17;;;22.67;;
25231;SDS011;13176;51.140;6.290;2023-05-29T08:23:27;22.98;;;20.63;;
25231;SDS011;13176;51.140;6.290;2023-05-29T08:25:53;22.08;;;19.90;;
25231;SDS011;13176;51.140;6.290;2023-05-29T08:28:20;20.55;;;18.63;;
25231;SDS011;13176;51.140;6.290;2023-05-29T08:30:47;35.05;;;32.58;;
25231;SDS011;13176;51.140;6.290;2023-05-29T08:33:13;20.92;;;18.92;;
25231;SDS011;13176;51.140;6.290;2023-05-29T08:35:40;21.80;;;19.63;;
25231;SDS011;13176;51.140;6.290;2023-05-29T08:38:06;26.27;;;24.02;;
25231;SDS011;13176;51.140;6.290;2023-05-29T08:40:33;22.13;;;20.08;;
25231;SDS011;13176;51.140;6.290;2023-05-29T08:43:01;17.75;;;15.65;;
25231;SDS011;13176;51.140;6.290;2023-05-29T08:45:33;21.80;;;19.88;;
25231;SDS011;13176;51.140;6.290;2023-05-29T08:48:00;16.90;;;15.35;;
25231;SDS011;13176;51.140;6.290;2023-05-29T08:50:27;19.17;;;17.33;;
25231;SDS011;13176;51.140;6.290;2023-05-29T08:52:54;18.88;;;16.85;;
25231;SDS011;13176;51.140;6.290;2023-05-29T08:55:22;20.95;;;18.88;;
25231;SDS011;13176;51.140;6.290;2023-05-29T08:57:49;20.65;;;18.95;;
25231;SDS011;13176;51.140;6.290;2023-05-29T09:00:16;20.23;;;18.45;;
25231;SDS011;13176;51.140;6.290;2023-05-29T09:02:44;18.70;;;14.63;;
25231;SDS011;13176;51.140;6.290;2023-05-29T09:05:11;18.52;;;16.88;;
25231;SDS011;13176;51.140;6.290;2023-05-29T09:07:39;20.50;;;18.63;;
25231;SDS011;13176;51.140;6.290;2023-05-29T09:10:06;17.63;;;15.95;;
25231;SDS011;13176;51.140;6.290;2023-05-29T09:12:33;18.90;;;17.25;;
25231;SDS011;13176;51.140;6.290;2023-05-29T09:15:01;18.20;;;16.75;;
25231;SDS011;13176;51.140;6.290;2023-05-29T09:17:31;17.40;;;15.90;;
25231;SDS011;13176;51.140;6.290;2023-05-29T09:19:59;17.15;;;15.45;;
25231;SDS011;13176;51.140;6.290;2023-05-29T09:22:26;20.58;;;18.77;;
25231;SDS011;13176;51.140;6.290;2023-05-29T09:24:52;21.75;;;19.95;;
25231;SDS011;13176;51.140;6.290;2023-05-29T09:27:20;20.20;;;16.23;;
25231;SDS011;13176;51.140;6.290;2023-05-29T09:29:48;17.85;;;15.80;;
25231;SDS011;13176;51.140;6.290;2023-05-29T09:32:15;22.67;;;20.63;;
25231;SDS011;13176;51.140;6.290;2023-05-29T09:34:43;22.58;;;20.27;;
25231;SDS011;13176;51.140;6.290;2023-05-29T09:37:10;20.45;;;18.48;;
25231;SDS011;13176;51.140;6.290;2023-05-29T09:42:09;20.92;;;19.02;;
25231;SDS011;13176;51.140;6.290;2023-05-29T09:44:35;22.30;;;20.48;;
25231;SDS011;13176;51.140;6.290;2023-05-29T09:47:02;20.02;;;18.10;;
25231;SDS011;13176;51.140;6.290;2023-05-29T09:49:31;19.63;;;17.60;;
25231;SDS011;13176;51.140;6.290;2023-05-29T09:51:58;19.70;;;17.70;;
25231;SDS011;13176;51.140;6.290;2023-05-29T09:54:28;21.95;;;19.98;;
25231;SDS011;13176;51.140;6.290;2023-05-29T09:56:56;20.27;;;18.33;;
25231;SDS011;13176;51.140;6.290;2023-05-29T09:59:24;22.20;;;19.92;;
25231;SDS011;13176;51.140;6.290;2023-05-29T10:02:00;21.10;;;19.20;;
25231;SDS011;13176;51.140;6.290;2023-05-29T10:04:34;15.98;;;14.55;;
25231;SDS011;13176;51.140;6.290;2023-05-29T10:07:04;20.05;;;18.30;;
25231;SDS011;13176;51.140;6.290;2023-05-29T10:09:34;18.10;;;16.47;;
25231;SDS011;13176;51.140;6.290;2023-05-29T10:12:05;17.92;;;16.15;;
25231;SDS011;13176;51.140;6.290;2023-05-29T10:14:34;19.17;;;17.67;;
25231;SDS011;13176;51.140;6.290;2023-05-29T10:17:02;19.67;;;17.67;;
25231;SDS011;13176;51.140;6.290;2023-05-29T10:19:35;18.83;;;17.48;;
25231;SDS011;13176;51.140;6.290;2023-05-29T10:22:03;17.15;;;15.38;;
25231;SDS011;13176;51.140;6.290;2023-05-29T10:24:32;20.60;;;18.52;;
25231;SDS011;13176;51.140;6.290;2023-05-29T10:26:59;22.00;;;19.77;;
25231;SDS011;13176;51.140;6.290;2023-05-29T10:29:31;17.63;;;15.80;;
25231;SDS011;13176;51.140;6.290;2023-05-29T10:35:06;18.50;;;16.70;;
25231;SDS011;13176;51.140;6.290;2023-05-29T10:40:29;15.80;;;14.20;;
25231;SDS011;13176;51.140;6.290;2023-05-29T10:42:55;12.88;;;11.55;;
25231;SDS011;13176;51.140;6.290;2023-05-29T10:47:55;22.77;;;18.80;;
25231;SDS011;13176;51.140;6.290;2023-05-29T10:50:46;13.50;;;12.13;;
25231;SDS011;13176;51.140;6.290;2023-05-29T10:53:17;14.18;;;11.48;;
25231;SDS011;13176;51.140;6.290;2023-05-29T10:55:48;15.15;;;13.95;;
25231;SDS011;13176;51.140;6.290;2023-05-29T10:58:20;15.55;;;11.00;;
25231;SDS011;13176;51.140;6.290;2023-05-29T11:00:58;15.75;;;11.05;;
25231;SDS011;13176;51.140;6.290;2023-05-29T11:03:31;14.45;;;11.52;;
25231;SDS011;13176;51.140;6.290;2023-05-29T11:06:05;13.23;;;11.98;;
25231;SDS011;13176;51.140;6.290;2023-05-29T11:08:45;10.95;;;9.25;;
25231;SDS011;13176;51.140;6.290;2023-05-29T11:11:29;11.00;;;9.88;;
25231;SDS011;13176;51.140;6.290;2023-05-29T11:14:08;14.50;;;11.30;;
25231;SDS011;13176;51.140;6.290;2023-05-29T11:19:04;12.27;;;10.35;;
25231;SDS011;13176;51.140;6.290;2023-05-29T11:24:23;15.43;;;12.60;;
25231;SDS011;13176;51.140;6.290;2023-05-29T11:26:56;14.18;;;12.85;;
25231;SDS011;13176;51.140;6.290;2023-05-29T11:29:25;16.55;;;12.02;;
25231;SDS011;13176;51.140;6.290;2023-05-29T11:31:55;13.23;;;11.63;;
25231;SDS011;13176;51.140;6.290;2023-05-29T11:34:34;12.38;;;11.10;;
25231;SDS011;13176;51.140;6.290;2023-05-29T11:37:08;12.73;;;11.43;;
25231;SDS011;13176;51.140;6.290;2023-05-29T11:39:37;13.30;;;11.52;;
25231;SDS011;13176;51.140;6.290;2023-05-29T11:42:04;11.52;;;8.73;;
25231;SDS011;13176;51.140;6.290;2023-05-29T11:44:32;12.43;;;11.30;;
25231;SDS011;13176;51.140;6.290;2023-05-29T11:47:02;12.18;;;10.93;;
25231;SDS011;13176;51.140;6.290;2023-05-29T11:49:31;12.90;;;11.55;;
25231;SDS011;13176;51.140;6.290;2023-05-29T11:52:06;15.45;;;11.82;;
25231;SDS011;13176;51.140;6.290;2023-05-29T11:54:41;13.57;;;12.35;;
25231;SDS011;13176;51.140;6.290;2023-05-29T11:57:20;16.23;;;10.95;;
25231;SDS011;13176;51.140;6.290;2023-05-29T11:59:47;11.85;;;9.30;;
25231;SDS011;13176;51.140;6.290;2023-05-29T12:02:15;15.32;;;12.57;;
25231;SDS011;13176;51.140;6.290;2023-05-29T12:04:41;13.52;;;11.77;;
25231;SDS011;13176;51.140;6.290;2023-05-29T12:07:17;14.75;;;13.25;;
25231;SDS011;13176;51.140;6.290;2023-05-29T12:09:44;14.27;;;10.60;;
25231;SDS011;13176;51.140;6.290;2023-05-29T12:12:11;12.85;;;11.50;;
25231;SDS011;13176;51.140;6.290;2023-05-29T12:14:37;14.05;;;12.75;;
25231;SDS011;13176;51.140;6.290;2023-05-29T12:17:04;13.60;;;10.52;;
25231;SDS011;13176;51.140;6.290;2023-05-29T12:19:31;14.50;;;10.02;;
25231;SDS011;13176;51.140;6.290;2023-05-29T12:21:57;12.05;;;10.98;;
25231;SDS011;13176;51.140;6.290;2023-05-29T12:24:24;13.00;;;11.73;;
25231;SDS011;13176;51.140;6.290;2023-05-29T12:27:04;12.20;;;10.48;;
25231;SDS011;13176;51.140;6.290;2023-05-29T12:29:33;12.82;;;11.52;;
25231;SDS011;13176;51.140;6.290;2023-05-29T12:32:00;12.40;;;11.18;;
25231;SDS011;13176;51.140;6.290;2023-05-29T12:34:26;10.77;;;8.52;;
25231;SDS011;13176;51.140;6.290;2023-05-29T12:37:09;10.13;;;8.68;;
25231;SDS011;13176;51.140;6.290;2023-05-29T12:39:40;15.52;;;13.10;;
25231;SDS011;13176;51.140;6.290;2023-05-29T12:42:06;12.63;;;11.57;;
25231;SDS011;13176;51.140;6.290;2023-05-29T12:44:34;11.15;;;9.23;;
25231;SDS011;13176;51.140;6.290;2023-05-29T12:47:02;11.38;;;10.27;;
25231;SDS011;13176;51.140;6.290;2023-05-29T12:49:29;11.02;;;10.07;;
25231;SDS011;13176;51.140;6.290;2023-05-29T12:51:56;12.05;;;10.85;;
25231;SDS011;13176;51.140;6.290;2023-05-29T12:54:33;11.93;;;10.55;;
25231;SDS011;13176;51.140;6.290;2023-05-29T12:57:00;13.98;;;12.65;;
25231;SDS011;13176;51.140;6.290;2023-05-29T12:59:27;16.15;;;14.15;;
25231;SDS011;13176;51.140;6.290;2023-05-29T13:01:54;16.92;;;15.52;;
25231;SDS011;13176;51.140;6.290;2023-05-29T13:04:21;11.30;;;10.45;;
25231;SDS011;13176;51.140;6.290;2023-05-29T13:06:47;10.77;;;9.80;;
25231;SDS011;13176;51.140;6.290;2023-05-29T13:09:14;9.15;;;8.30;;
25231;SDS011;13176;51.140;6.290;2023-05-29T13:11:40;13.85;;;12.32;;
25231;SDS011;13176;51.140;6.290;2023-05-29T13:14:07;14.30;;;13.10;;
25231;SDS011;13176;51.140;6.290;2023-05-29T13:16:33;12.95;;;11.75;;
25231;SDS011;13176;51.140;6.290;2023-05-29T13:19:01;18.75;;;16.75;;
25231;SDS011;13176;51.140;6.290;2023-05-29T13:21:27;16.27;;;13.30;;
25231;SDS011;13176;51.140;6.290;2023-05-29T13:23:54;13.55;;;12.38;;
25231;SDS011;13176;51.140;6.290;2023-05-29T13:26:20;12.43;;;9.93;;
25231;SDS011;13176;51.140;6.290;2023-05-29T13:28:48;12.55;;;11.25;;
25231;SDS011;13176;51.140;6.290;2023-05-29T13:31:14;10.40;;;9.43;;
25231;SDS011;13176;51.140;6.290;2023-05-29T13:33:41;13.15;;;11.38;;
25231;SDS011;13176;51.140;6.290;2023-05-29T13:36:07;10.45;;;8.82;;
25231;SDS011;13176;51.140;6.290;2023-05-29T13:38:34;15.52;;;14.10;;
25231;SDS011;13176;51.140;6.290;2023-05-29T13:41:00;13.80;;;10.05;;
25231;SDS011;13176;51.140;6.290;2023-05-29T13:43:27;20.55;;;11.35;;
25231;SDS011;13176;51.140;6.290;2023-05-29T13:46:09;10.00;;;9.20;;
25231;SDS011;13176;51.140;6.290;2023-05-29T13:48:36;10.07;;;9.00;;
25231;SDS011;13176;51.140;6.290;2023-05-29T13:51:03;13.48;;;11.40;;
25231;SDS011;13176;51.140;6.290;2023-05-29T13:53:29;12.65;;;11.60;;
25231;SDS011;13176;51.140;6.290;2023-05-29T13:55:56;11.43;;;10.32;;
25231;SDS011;13176;51.140;6.290;2023-05-29T13:58:23;16.92;;;15.38;;
25231;SDS011;13176;51.140;6.290;2023-05-29T14:00:49;10.85;;;9.90;;
25231;SDS011;13176;51.140;6.290;2023-05-29T14:03:15;15.82;;;12.55;;
25231;SDS011;13176;51.140;6.290;2023-05-29T14:05:42;14.68;;;9.40;;
25231;SDS011;13176;51.140;6.290;2023-05-29T14:08:09;13.20;;;11.88;;
25231;SDS011;13176;51.140;6.290;2023-05-29T14:10:35;10.27;;;9.35;;
25231;SDS011;13176;51.140;6.290;2023-05-29T14:13:02;13.13;;;10.02;;
25231;SDS011;13176;51.140;6.290;2023-05-29T14:15:28;11.68;;;9.70;;
25231;SDS011;13176;51.140;6.290;2023-05-29T14:17:54;60.13;;;16.25;;
25231;SDS011;13176;51.140;6.290;2023-05-29T14:20:21;15.68;;;14.00;;
25231;SDS011;13176;51.140;6.290;2023-05-29T14:22:47;12.15;;;9.75;;
25231;SDS011;13176;51.140;6.290;2023-05-29T14:25:14;11.32;;;8.75;;
25231;SDS011;13176;51.140;6.290;2023-05-29T14:27:40;10.70;;;9.65;;
25231;SDS011;13176;51.140;6.290;2023-05-29T14:30:07;13.48;;;12.38;;
25231;SDS011;13176;51.140;6.290;2023-05-29T14:32:34;12.05;;;8.95;;
25231;SDS011;13176;51.140;6.290;2023-05-29T14:35:00;11.18;;;10.23;;
25231;SDS011;13176;51.140;6.290;2023-05-29T14:37:27;10.23;;;9.13;;
25231;SDS011;13176;51.140;6.290;2023-05-29T14:39:53;12.93;;;11.63;;
25231;SDS011;13176;51.140;6.290;2023-05-29T14:42:20;11.05;;;10.13;;